Time;durP1;ratioP1;P1;durP2;ratioP2;P2;SDS_P1;SDS_P2;PMS_P1;PMS_P2;Temp;Humidity;BMP_temperature;BMP_pressure;BME280_temperature;BME280_humidity;BME280_pressure;Samples;Min_cycle;Max_cycle;Signal;HPM_P1;HPM_P2
2022/08/30 00:01:05;;;;;;;16.17;9.90;;;;;;;23.64;66.29;100849.88;2089081;28;20045;-71
2022/08/30 00:02:27;;;;;;;15.73;8.75;;;;;;;23.62;66.64;100845.50;2081352;28;20134;-71
2022/08/30 00:03:49;;;;;;;13.57;8.55;;;;;;;23.54;66.94;100845.75;2086850;28;20045;-71
2022/08/30 00:05:12;;;;;;;12.32;8.15;;;;;;;23.47;67.00;100846.91;2086924;28;20048;-71
2022/08/30 00:06:34;;;;;;;14.55;8.30;;;;;;;23.45;67.09;100838.84;2086955;28;20476;-71
2022/08/30 00:07:57;;;;;;;13.85;7.95;;;;;;;23.44;66.89;100841.59;2085871;28;20045;-71
2022/08/30 00:09:19;;;;;;;16.42;8.52;;;;;;;23.33;67.36;100839.28;2086958;28;20048;-71
2022/08/30 00:10:42;;;;;;;13.95;8.98;;;;;;;23.28;67.52;100845.78;2086286;28;20099;-71
2022/08/30 00:12:04;;;;;;;16.85;8.73;;;;;;;23.24;67.80;100841.41;2086708;28;20557;-71
2022/08/30 00:13:26;;;;;;;17.70;8.68;;;;;;;23.23;67.61;100854.03;2088045;28;20060;-71
2022/08/30 00:14:49;;;;;;;14.05;8.00;;;;;;;23.21;67.79;100850.50;2079014;28;20050;-71
2022/08/30 00:16:12;;;;;;;14.65;8.52;;;;;;;23.20;67.98;100842.47;2089418;28;20714;-72
2022/08/30 00:17:34;;;;;;;16.33;8.55;;;;;;;23.20;68.13;100843.34;2089705;28;20063;-71
2022/08/30 00:18:57;;;;;;;16.85;8.88;;;;;;;23.24;67.83;100839.59;2089640;28;20037;-71
2022/08/30 00:20:22;;;;;;;17.52;8.82;;;;;;;23.29;67.71;100848.44;2090491;28;20044;-71
2022/08/30 00:21:45;;;;;;;14.68;8.38;;;;;;;23.28;67.62;100841.28;2095089;28;20194;-72
2022/08/30 00:23:06;;;;;;;14.30;8.10;;;;;;;23.24;67.85;100838.72;2089381;28;20075;-72
2022/08/30 00:24:28;;;;;;;16.50;9.15;;;;;;;23.22;67.94;100846.88;2094843;28;20111;-71
2022/08/30 00:25:50;;;;;;;17.38;9.00;;;;;;;23.21;68.21;100845.13;2094340;28;20049;-71
2022/08/30 00:27:12;;;;;;;14.38;8.98;;;;;;;23.21;68.29;100844.25;2091299;28;20071;-71
2022/08/30 00:28:36;;;;;;;16.25;8.82;;;;;;;23.20;68.30;100847.84;2080699;28;20052;-72
2022/08/30 00:29:59;;;;;;;14.50;8.32;;;;;;;23.18;68.31;100841.63;2086661;28;20053;-71
2022/08/30 00:31:22;;;;;;;14.73;9.00;;;;;;;23.21;68.48;100844.25;2086706;28;20045;-71
2022/08/30 00:32:43;;;;;;;14.90;8.57;;;;;;;23.26;68.41;100839.56;2093133;28;20576;-71
2022/08/30 00:34:06;;;;;;;15.20;7.88;;;;;;;23.26;68.32;100843.13;2101240;28;20520;-71
2022/08/30 00:35:29;;;;;;;12.73;7.93;;;;;;;23.21;68.36;100845.13;2102701;28;20551;-71
2022/08/30 00:36:51;;;;;;;13.73;8.10;;;;;;;23.14;68.36;100842.69;2101910;28;20086;-71
2022/08/30 00:38:15;;;;;;;17.08;8.18;;;;;;;23.05;68.70;100847.44;2095995;28;20147;-71
2022/08/30 00:39:36;;;;;;;17.45;8.63;;;;;;;23.03;68.70;100852.03;2103597;28;20043;-71
2022/08/30 00:40:59;;;;;;;13.77;9.45;;;;;;;23.08;68.76;100837.50;2102784;28;20139;-71
2022/08/30 00:42:22;;;;;;;14.18;8.75;;;;;;;23.15;68.63;100839.06;2095825;28;20076;-72
2022/08/30 00:43:44;;;;;;;16.55;9.45;;;;;;;23.22;68.73;100832.53;2093695;28;20037;-71
2022/08/30 00:45:14;;;;;;;14.20;8.90;;;;;;;23.25;68.50;100837.78;2094819;28;20079;-71
2022/08/30 00:46:37;;;;;;;19.17;10.50;;;;;;;23.23;68.48;100834.31;2089833;28;20037;-71
2022/08/30 00:48:00;;;;;;;14.63;8.43;;;;;;;23.20;68.51;100832.56;2100631;28;20047;-72
2022/08/30 00:49:23;;;;;;;14.10;8.18;;;;;;;23.18;68.50;100831.75;2098361;28;20135;-71
2022/08/30 00:50:49;;;;;;;17.52;9.05;;;;;;;23.18;68.59;100829.06;2093396;28;20200;-71
2022/08/30 00:52:13;;;;;;;15.45;9.68;;;;;;;23.18;68.81;100828.16;2097018;28;20044;-71
2022/08/30 00:53:37;;;;;;;13.70;8.25;;;;;;;23.16;68.61;100824.66;2094013;28;20063;-71
2022/08/30 00:55:00;;;;;;;14.98;9.23;;;;;;;23.17;68.54;100835.38;2103483;28;20051;-71
2022/08/30 00:56:25;;;;;;;17.42;9.50;;;;;;;23.20;68.45;100826.31;2097487;28;20049;-71
2022/08/30 00:57:51;;;;;;;15.77;8.13;;;;;;;23.21;68.47;100825.38;2095847;28;20554;-72
2022/08/30 00:59:14;;;;;;;16.27;9.27;;;;;;;23.18;68.58;100828.16;2094600;28;20036;-72
2022/08/30 01:00:37;;;;;;;12.50;8.20;;;;;;;23.11;68.94;100832.88;2094787;28;20136;-71
2022/08/30 01:02:01;;;;;;;16.33;9.27;;;;;;;23.08;69.15;100824.06;2092440;28;20048;-71
2022/08/30 01:03:23;;;;;;;17.35;8.95;;;;;;;23.10;69.25;100827.56;2107316;28;20070;-71
2022/08/30 01:04:46;;;;;;;;;;;;;;;23.06;69.33;100818.72;2098131;28;20056;-71
2022/08/30 01:06:09;;;;;;;12.85;8.35;;;;;;;23.03;69.43;100822.41;2094616;28;20464;-71
2022/08/30 01:07:33;;;;;;;16.30;8.90;;;;;;;23.03;69.56;100827.78;2086322;28;20041;-71
2022/08/30 01:08:57;;;;;;;13.52;9.38;;;;;;;23.03;69.67;100818.84;2076482;28;20111;-71
2022/08/30 01:10:21;;;;;;;17.27;9.73;;;;;;;23.04;69.86;100826.84;2084261;28;20695;-71
2022/08/30 01:11:44;;;;;;;18.20;9.02;;;;;;;23.08;69.81;100824.06;2091796;28;20131;-71
2022/08/30 01:13:08;;;;;;;24.10;11.25;;;;;;;23.08;69.67;100830.31;2100159;28;20063;-71
2022/08/30 01:14:32;;;;;;;12.02;8.52;;;;;;;23.08;69.71;100813.28;2093578;28;20051;-71
2022/08/30 01:15:55;;;;;;;18.00;9.70;;;;;;;23.04;69.72;100818.75;2103088;28;20048;-72
2022/08/30 01:17:18;;;;;;;18.35;8.43;;;;;;;23.00;69.94;100821.63;2097912;28;20448;-71
2022/08/30 01:18:40;;;;;;;13.57;8.43;;;;;;;22.96;70.22;100819.97;2088509;28;20041;-71
2022/08/30 01:20:06;;;;;;;14.43;8.32;;;;;;;22.96;70.30;100814.59;2097085;28;20545;-71
2022/08/30 01:21:33;;;;;;;17.48;8.85;;;;;;;22.94;70.37;100821.84;2094868;28;20475;-71
2022/08/30 01:23:14;;;;;;;14.60;8.07;;;;;;;22.93;70.49;100820.94;2097670;28;20071;-72
2022/08/30 01:24:37;;;;;;;15.48;9.15;;;;;;;22.92;70.41;100815.59;2096970;28;20443;-71
2022/08/30 01:26:01;;;;;;;13.07;8.57;;;;;;;22.91;70.50;100814.72;2086161;28;20098;-71
2022/08/30 01:27:25;;;;;;;17.70;10.00;;;;;;;22.86;70.61;100814.00;2097498;28;20043;-72
2022/08/30 01:28:51;;;;;;;16.55;9.65;;;;;;;22.87;70.89;100809.50;2095444;28;20546;-71
2022/08/30 01:30:13;;;;;;;13.23;8.68;;;;;;;22.90;70.87;100812.09;2094419;28;20128;-72
2022/08/30 01:31:35;;;;;;;;;;;;;;;22.89;70.77;100808.53;2097221;28;20043;-71
2022/08/30 01:32:57;;;;;;;;;;;;;;;22.88;70.66;100806.78;2101791;28;20421;-71
2022/08/30 01:34:20;;;;;;;15.52;9.82;;;;;;;22.89;70.80;100807.66;2105580;28;19920;-71
2022/08/30 01:35:47;;;;;;;15.68;8.80;;;;;;;22.89;70.55;100810.34;2088796;28;20048;-72
2022/08/30 01:37:10;;;;;;;16.40;9.60;;;;;;;22.89;70.42;100808.53;2095784;28;20058;-71
2022/08/30 01:38:37;;;;;;;17.08;9.32;;;;;;;22.91;70.56;100806.66;2097077;28;20052;-72
2022/08/30 01:40:00;;;;;;;14.70;9.18;;;;;;;22.92;70.64;100802.16;2091918;28;20048;-72
2022/08/30 01:41:26;;;;;;;13.93;8.77;;;;;;;22.92;70.72;100803.03;2095726;28;20044;-72
2022/08/30 01:42:47;;;;;;;16.30;9.07;;;;;;;22.88;70.70;100808.59;2086916;28;20461;-71
2022/08/30 01:44:11;;;;;;;20.13;9.02;;;;;;;22.85;71.04;100814.06;2094378;28;20045;-71
2022/08/30 01:45:51;;;;;;;13.88;8.63;;;;;;;22.82;71.16;100803.41;2093274;28;20093;-71
2022/08/30 01:47:17;;;;;;;13.57;9.40;;;;;;;22.83;71.23;100806.06;2098046;28;20040;-71
2022/08/30 01:48:41;;;;;;;14.65;9.57;;;;;;;22.85;71.40;100806.88;2094950;28;20139;-72
2022/08/30 01:50:05;;;;;;;15.27;9.18;;;;;;;22.86;71.42;100803.25;2099242;28;20067;-72
2022/08/30 01:51:29;;;;;;;15.00;9.02;;;;;;;22.84;71.36;100807.78;2102874;28;20393;-72
2022/08/30 01:52:51;;;;;;;17.75;9.45;;;;;;;22.82;71.33;100796.22;2096977;28;20045;-71
2022/08/30 01:54:15;;;;;;;14.40;8.95;;;;;;;22.80;71.32;100800.75;2094080;28;20098;-72
2022/08/30 01:55:37;;;;;;;17.00;8.88;;;;;;;22.80;71.57;100799.88;2095137;28;20048;-71
2022/08/30 01:56:59;;;;;;;;;;;;;;;22.76;71.46;100807.19;2097305;28;20036;-71
2022/08/30 01:58:22;;;;;;;14.65;8.80;;;;;;;22.74;71.51;100800.09;2094097;28;19947;-72
2022/08/30 01:59:46;;;;;;;13.68;8.60;;;;;;;22.66;71.53;100806.56;2094262;28;20040;-71
2022/08/30 02:01:11;;;;;;;14.95;9.27;;;;;;;22.57;71.80;100806.03;2102475;28;20048;-71
2022/08/30 02:02:33;;;;;;;12.60;8.60;;;;;;;22.47;72.20;100796.47;2094359;28;20044;-71
2022/08/30 02:03:57;;;;;;;13.90;8.55;;;;;;;22.45;72.49;100806.44;2094976;28;20101;-71
2022/08/30 02:05:19;;;;;;;14.32;8.10;;;;;;;22.46;72.68;100809.03;2093882;28;20143;-71
2022/08/30 02:06:42;;;;;;;17.23;9.27;;;;;;;22.51;72.58;100803.53;2100661;28;20056;-71
2022/08/30 02:08:04;;;;;;;15.43;9.38;;;;;;;22.59;72.55;100798.75;2102383;28;20082;-72
2022/08/30 02:09:27;;;;;;;15.50;9.23;;;;;;;22.64;72.40;100802.19;2102747;28;20059;-71
2022/08/30 02:10:50;;;;;;;17.48;9.27;;;;;;;22.66;72.25;100801.19;2096180;28;20037;-71
2022/08/30 02:12:11;;;;;;;14.93;8.73;;;;;;;22.67;72.00;100802.06;2092940;28;20064;-71
2022/08/30 02:13:36;;;;;;;;;;;;;;;22.66;72.11;100800.31;2099426;28;20578;-72
2022/08/30 02:14:59;;;;;;;13.98;9.18;;;;;;;22.66;72.07;100805.69;2110723;28;19955;-71
2022/08/30 02:16:23;;;;;;;13.25;8.52;;;;;;;22.66;72.05;100808.38;2099325;28;20483;-71
2022/08/30 02:17:44;;;;;;;14.82;8.65;;;;;;;22.65;71.88;100806.63;2092139;28;20374;-71
2022/08/30 02:19:08;;;;;;;13.77;8.60;;;;;;;22.63;71.95;100806.69;2091233;28;20056;-71
2022/08/30 02:20:30;;;;;;;17.17;8.95;;;;;;;22.67;72.05;100808.34;2096553;28;20041;-71
2022/08/30 02:21:52;;;;;;;12.65;8.30;;;;;;;22.72;71.94;100805.47;2098156;28;20051;-71
2022/08/30 02:23:15;;;;;;;15.00;8.60;;;;;;;22.74;71.95;100813.56;2093397;28;20052;-71
2022/08/30 02:24:39;;;;;;;14.65;9.00;;;;;;;22.74;71.80;100817.13;2093860;28;20043;-71
2022/08/30 02:26:02;;;;;;;16.77;8.90;;;;;;;22.74;71.99;100816.25;2085783;28;20055;-71
2022/08/30 02:27:25;;;;;;;19.60;9.35;;;;;;;22.74;72.10;100822.50;2094086;28;20054;-71
2022/08/30 02:28:48;;;;;;;13.80;7.80;;;;;;;22.71;71.99;100822.56;2096079;28;20077;-71
2022/08/30 02:30:11;;;;;;;15.57;8.75;;;;;;;22.60;71.98;100813.97;2094403;28;20135;-72
2022/08/30 02:31:34;;;;;;;14.68;8.25;;;;;;;22.50;72.16;100818.78;2095612;28;20131;-72
2022/08/30 02:32:56;;;;;;;14.30;8.93;;;;;;;22.48;72.26;100809.88;2094065;28;20143;-72
2022/08/30 02:34:20;;;;;;;12.88;8.73;;;;;;;22.53;72.21;100824.06;2099961;28;20116;-71
2022/08/30 02:35:41;;;;;;;14.35;8.52;;;;;;;22.58;71.86;100821.22;2100006;28;20044;-72
2022/08/30 02:37:05;;;;;;;15.00;7.88;;;;;;;22.62;71.73;100815.69;2085753;28;20044;-71
2022/08/30 02:38:26;;;;;;;16.42;9.27;;;;;;;22.63;71.49;100814.78;2083141;28;20455;-72
2022/08/30 02:39:50;;;;;;;13.85;8.02;;;;;;;22.65;71.31;100817.38;2091183;28;20040;-71
2022/08/30 02:41:11;;;;;;;16.35;8.30;;;;;;;22.66;71.26;100819.16;2094108;28;20113;-71
2022/08/30 02:42:34;;;;;;;14.10;8.95;;;;;;;22.66;71.01;100819.16;2099775;28;20055;-72
2022/08/30 02:43:59;;;;;;;13.75;8.50;;;;;;;22.70;71.05;100820.84;2100489;28;20131;-72
2022/08/30 02:45:20;;;;;;;15.80;8.30;;;;;;;22.72;70.89;100820.75;2105174;28;20044;-71
2022/08/30 02:46:43;;;;;;;14.68;8.75;;;;;;;22.71;70.83;100821.72;2098745;28;20567;-72
2022/08/30 02:48:06;;;;;;;15.90;9.02;;;;;;;22.72;71.00;100818.06;2102023;28;20525;-71
2022/08/30 02:49:29;;;;;;;15.80;9.05;;;;;;;22.73;70.90;100815.34;2091131;28;20049;-71
2022/08/30 02:50:51;;;;;;;16.67;8.27;;;;;;;22.70;70.83;100819.94;2099805;28;20070;-71
2022/08/30 02:52:14;;;;;;;14.23;8.68;;;;;;;22.60;70.83;100817.53;2099974;28;20125;-72
2022/08/30 02:53:36;;;;;;;16.48;8.27;;;;;;;22.55;70.93;100814.13;2098392;28;20044;-71
2022/08/30 02:55:00;;;;;;;15.35;8.07;;;;;;;22.53;71.00;100823.16;2093767;28;20162;-71
2022/08/30 02:56:23;;;;;;;16.48;8.30;;;;;;;22.48;71.09;100820.66;2096094;28;20044;-72
2022/08/30 02:57:46;;;;;;;13.00;8.02;;;;;;;22.49;70.95;100825.09;2088601;28;20039;-71
2022/08/30 02:59:07;;;;;;;16.25;7.88;;;;;;;22.47;70.75;100816.19;2091322;28;20080;-72
2022/08/30 03:00:30;;;;;;;12.98;7.60;;;;;;;22.43;70.67;100817.22;2093700;28;20083;-71
2022/08/30 03:01:53;;;;;;;11.82;6.88;;;;;;;22.40;70.59;100814.63;2088599;28;20622;-71
2022/08/30 03:03:15;;;;;;;13.07;7.18;;;;;;;22.34;70.60;100827.38;2098482;28;20139;-72
2022/08/30 03:04:38;;;;;;;18.48;7.35;;;;;;;22.31;70.63;100825.69;2096994;28;20056;-71
2022/08/30 03:06:02;;;;;;;14.80;8.10;;;;;;;22.31;70.55;100824.81;2102338;28;20071;-71
2022/08/30 03:07:24;;;;;;;14.52;7.68;;;;;;;22.31;70.49;100822.13;2088004;28;20075;-71
2022/08/30 03:08:45;;;;;;;15.23;7.88;;;;;;;22.38;70.20;100821.00;2090961;28;20123;-71
2022/08/30 03:10:11;;;;;;;13.80;8.80;;;;;;;22.43;70.01;100822.59;2101616;28;20060;-71
2022/08/30 03:11:33;;;;;;;13.98;7.97;;;;;;;22.46;69.73;100827.88;2093568;28;20053;-71
2022/08/30 03:12:56;;;;;;;14.70;8.32;;;;;;;22.44;69.65;100824.38;2094417;28;20048;-71
2022/08/30 03:14:17;;;;;;;13.55;8.60;;;;;;;22.42;69.63;100828.91;2093916;28;20472;-72
2022/08/30 03:15:40;;;;;;;15.60;8.02;;;;;;;22.39;69.85;100834.38;2093769;28;20489;-71
2022/08/30 03:17:05;;;;;;;17.38;8.07;;;;;;;22.38;70.09;100832.66;2089637;28;20100;-71
2022/08/30 03:18:28;;;;;;;14.10;7.47;;;;;;;22.35;70.19;100838.09;2098325;28;20134;-72
2022/08/30 03:19:50;;;;;;;13.15;8.13;;;;;;;22.36;70.21;100841.69;2087511;28;20037;-71
2022/08/30 03:21:14;;;;;;;12.38;7.60;;;;;;;22.38;70.16;100846.09;2083031;28;20057;-71
2022/08/30 03:22:36;;;;;;;12.15;8.00;;;;;;;22.40;70.04;100836.16;2098558;28;20094;-71
2022/08/30 03:23:58;;;;;;;16.30;8.10;;;;;;;22.42;70.00;100844.19;2086479;28;20636;-72
2022/08/30 03:25:23;;;;;;;13.40;7.95;;;;;;;22.43;69.85;100844.13;2093592;28;20041;-72
2022/08/30 03:26:44;;;;;;;16.48;8.38;;;;;;;22.43;69.79;100840.56;2102287;28;20073;-71
2022/08/30 03:28:07;;;;;;;12.95;8.85;;;;;;;22.47;69.74;100839.53;2089200;28;20143;-71
2022/08/30 03:29:30;;;;;;;15.95;8.23;;;;;;;22.49;69.70;100843.94;2092987;28;20050;-71
2022/08/30 03:30:51;;;;;;;14.93;8.02;;;;;;;22.48;69.63;100844.88;2102545;28;20160;-71
2022/08/30 03:32:13;;;;;;;17.08;8.93;;;;;;;22.44;69.64;100853.09;2087417;28;20052;-71
2022/08/30 03:33:35;;;;;;;12.70;8.38;;;;;;;22.41;69.69;100850.47;2092511;28;20140;-72
2022/08/30 03:34:58;;;;;;;12.52;8.00;;;;;;;22.38;69.76;100856.84;2095140;28;20048;-72
2022/08/30 03:36:20;;;;;;;15.40;7.63;;;;;;;22.38;69.70;100847.91;2095226;28;20052;-71
2022/08/30 03:37:42;;;;;;;16.60;8.52;;;;;;;22.39;69.66;100852.31;2102824;28;20409;-73
2022/08/30 03:39:05;;;;;;;12.38;8.07;;;;;;;22.42;69.50;100854.94;2102540;28;20127;-71
2022/08/30 03:40:27;;;;;;;15.27;7.85;;;;;;;22.45;69.24;100854.84;2103867;28;20055;-72
2022/08/30 03:41:50;;;;;;;15.95;8.20;;;;;;;22.42;69.27;100853.13;2102733;28;20487;-71
2022/08/30 03:43:11;;;;;;;15.68;9.32;;;;;;;22.40;69.26;100857.66;2099692;28;20056;-71
2022/08/30 03:44:34;;;;;;;15.77;8.02;;;;;;;22.42;69.29;100854.94;2095011;28;20048;-72
2022/08/30 03:45:57;;;;;;;15.48;7.95;;;;;;;22.38;69.37;100851.47;2095235;28;20056;-72
2022/08/30 03:47:19;;;;;;;13.45;7.95;;;;;;;22.35;69.48;100856.94;2094916;28;20131;-71
2022/08/30 03:48:42;;;;;;;;;;;;;;;22.30;69.42;100855.31;2097869;28;20051;-71
2022/08/30 03:50:06;;;;;;;14.15;8.25;;;;;;;22.27;69.57;100854.47;2098143;28;19920;-71
2022/08/30 03:51:29;;;;;;;13.00;8.70;;;;;;;22.30;69.73;100852.63;2094948;28;20138;-71
2022/08/30 03:52:52;;;;;;;13.55;8.07;;;;;;;22.30;69.73;100855.31;2094517;28;20374;-71
2022/08/30 03:54:14;;;;;;;14.77;7.78;;;;;;;22.29;69.97;100853.56;2095551;28;20044;-72
2022/08/30 03:55:39;;;;;;;14.30;8.00;;;;;;;22.29;69.97;100862.50;2086299;28;20044;-71
2022/08/30 03:57:01;;;;;;;21.38;8.25;;;;;;;22.29;70.14;100859.81;2084567;28;20382;-71
2022/08/30 03:58:24;;;;;;;14.70;8.18;;;;;;;22.30;70.26;100863.41;2098478;28;20433;-72
2022/08/30 03:59:46;;;;;;;15.43;8.30;;;;;;;22.35;70.28;100864.13;2103074;28;20067;-72
2022/08/30 04:01:08;;;;;;;15.30;8.40;;;;;;;22.38;70.34;100864.03;2094053;28;20051;-71
2022/08/30 04:02:31;;;;;;;15.18;9.02;;;;;;;22.43;70.33;100860.28;2092513;28;20048;-73
2022/08/30 04:03:52;;;;;;;15.05;8.20;;;;;;;22.46;70.22;100870.03;2097273;28;20043;-71
2022/08/30 04:05:14;;;;;;;18.20;8.55;;;;;;;22.50;70.40;100866.34;2103367;28;20064;-71
2022/08/30 04:06:37;;;;;;;17.50;8.40;;;;;;;22.55;70.40;100867.97;2095098;28;20044;-71
2022/08/30 04:08:00;;;;;;;12.70;7.82;;;;;;;22.62;70.19;100874.91;2098120;28;20082;-71
2022/08/30 04:09:23;;;;;;;15.10;8.68;;;;;;;22.68;70.32;100876.50;2102398;28;20480;-72
2022/08/30 04:10:48;;;;;;;13.80;7.70;;;;;;;22.73;70.43;100868.31;2103835;28;20096;-71
2022/08/30 04:12:09;;;;;;;13.65;7.93;;;;;;;22.79;70.52;100871.69;2098755;28;20055;-71
2022/08/30 04:13:32;;;;;;;16.75;7.97;;;;;;;22.87;70.35;100876.81;2097266;28;20405;-72
2022/08/30 04:14:55;;;;;;;14.95;7.88;;;;;;;22.95;70.53;100867.56;2098381;28;20040;-71
2022/08/30 04:16:17;;;;;;;14.00;7.57;;;;;;;23.03;70.10;100876.28;2096552;28;20055;-71
2022/08/30 04:17:40;;;;;;;13.63;7.88;;;;;;;23.09;70.31;100885.06;2095156;28;20047;-71
2022/08/30 04:19:01;;;;;;;13.15;7.68;;;;;;;23.18;70.47;100882.03;2095233;28;20061;-71
2022/08/30 04:20:24;;;;;;;12.20;7.53;;;;;;;23.26;70.62;100885.38;2101076;28;20032;-72
2022/08/30 04:21:47;;;;;;;14.15;8.05;;;;;;;23.36;70.28;100889.50;2102215;28;20511;-72
2022/08/30 04:23:11;;;;;;;11.68;7.00;;;;;;;23.43;69.94;100888.38;2101645;28;20143;-72
2022/08/30 04:24:34;;;;;;;13.55;7.18;;;;;;;23.53;69.73;100884.44;2095374;28;20064;-71
2022/08/30 04:25:57;;;;;;;12.57;7.20;;;;;;;23.62;69.71;100886.81;2095186;28;20041;-71
2022/08/30 04:27:19;;;;;;;9.60;6.80;;;;;;;23.71;69.82;100890.97;2100203;28;20179;-72
2022/08/30 04:28:42;;;;;;;14.90;7.40;;;;;;;23.79;69.88;100883.47;2103208;28;20120;-71
2022/08/30 04:30:04;;;;;;;14.27;6.93;;;;;;;23.89;69.65;100882.22;2101799;28;20048;-71
2022/08/30 04:31:27;;;;;;;14.10;6.78;;;;;;;24.01;69.80;100894.34;2086585;28;20071;-71
2022/08/30 04:32:50;;;;;;;12.18;6.22;;;;;;;24.10;69.07;100888.59;2095396;28;20118;-71
2022/08/30 04:34:13;;;;;;;14.27;6.13;;;;;;;24.20;68.94;100884.66;2102845;28;20446;-71
2022/08/30 04:35:36;;;;;;;9.07;6.28;;;;;;;24.30;68.48;100888.75;2111542;28;20047;-71
2022/08/30 04:36:57;;;;;;;11.00;5.20;;;;;;;24.40;68.45;100892.84;2103874;28;20084;-72
2022/08/30 04:38:20;;;;;;;16.50;5.78;;;;;;;24.52;68.02;100900.47;2098909;28;20044;-71
2022/08/30 04:39:42;;;;;;;17.80;6.90;;;;;;;24.62;67.71;100891.03;2094694;28;20661;-71
2022/08/30 04:41:15;;;;;;;12.45;6.63;;;;;;;24.72;67.39;100887.97;2100525;28;20064;-72
2022/08/30 04:42:38;;;;;;;10.40;6.63;;;;;;;24.82;67.16;100892.06;2087992;28;20394;-72
2022/08/30 04:44:02;;;;;;;13.50;6.45;;;;;;;24.93;66.84;100887.13;2088933;28;20375;-72
2022/08/30 04:45:24;;;;;;;13.00;6.50;;;;;;;25.03;66.44;100891.19;2098271;28;20075;-71
2022/08/30 04:46:47;;;;;;;9.40;5.13;;;;;;;25.14;66.11;100897.03;2097795;28;20137;-72
2022/08/30 04:48:09;;;;;;;12.65;7.35;;;;;;;25.25;65.65;100886.66;2103177;28;20052;-72
2022/08/30 04:49:32;;;;;;;13.48;6.20;;;;;;;25.35;65.67;100887.13;2096294;28;20051;-72
2022/08/30 04:50:54;;;;;;;12.07;5.90;;;;;;;25.47;65.42;100881.16;2095145;28;20528;-72
2022/08/30 04:52:16;;;;;;;12.48;5.43;;;;;;;25.58;65.20;100886.16;2096917;28;20485;-72
2022/08/30 04:53:39;;;;;;;11.57;5.50;;;;;;;25.68;64.97;100891.06;2101254;28;20050;-72
2022/08/30 04:55:02;;;;;;;10.30;5.35;;;;;;;25.81;64.84;100886.00;2103451;28;20138;-71
2022/08/30 04:56:25;;;;;;;9.30;5.45;;;;;;;25.94;64.95;100884.47;2101929;28;20551;-71
2022/08/30 04:57:48;;;;;;;10.48;4.97;;;;;;;26.06;64.81;100893.84;2094786;28;20040;-72
2022/08/30 04:59:10;;;;;;;10.23;5.43;;;;;;;26.20;64.70;100888.69;2099673;28;20062;-72
2022/08/30 05:00:33;;;;;;;11.10;5.07;;;;;;;26.35;64.56;100892.53;2091598;28;20060;-72
2022/08/30 05:01:56;;;;;;;18.38;5.88;;;;;;;26.50;64.24;100889.09;2098700;28;20056;-72
2022/08/30 05:03:19;;;;;;;11.18;4.88;;;;;;;26.65;64.21;100893.75;2097169;28;20049;-72
2022/08/30 05:05:38;;;;;;;10.77;5.22;;;;;;;26.76;63.50;100890.53;2088011;28;20043;-73
2022/08/30 05:06:26;;;;;;;9.88;4.72;;;;;;;26.89;63.12;100899.84;2096315;28;20048;-72
2022/08/30 05:07:48;;;;;;;10.63;4.10;;;;;;;27.00;62.72;100885.75;2097570;28;20559;-72
2022/08/30 05:09:11;;;;;;;11.70;4.35;;;;;;;27.11;62.51;100888.81;2094793;28;20048;-72
2022/08/30 05:10:34;;;;;;;10.13;4.50;;;;;;;27.22;62.09;100890.00;2094315;28;20513;-73
2022/08/30 05:11:58;;;;;;;10.25;5.15;;;;;;;27.36;61.83;100889.31;2094211;28;20541;-72
2022/08/30 05:13:20;;;;;;;9.43;4.78;;;;;;;27.50;61.49;100894.91;2098429;28;20124;-73
2022/08/30 05:14:43;;;;;;;14.75;4.97;;;;;;;27.65;61.22;100888.66;2100156;28;20079;-72
2022/08/30 05:16:08;;;;;;;11.52;4.68;;;;;;;27.82;60.85;100889.63;2094813;28;20056;-72
2022/08/30 05:17:30;;;;;;;10.02;4.93;;;;;;;27.97;60.52;100886.94;2095024;28;20055;-72
2022/08/30 05:18:54;;;;;;;10.88;4.32;;;;;;;28.13;60.08;100889.69;2095953;28;20810;-73
2022/08/30 05:20:16;;;;;;;8.93;4.57;;;;;;;28.28;59.61;100882.56;2101730;28;20408;-72
2022/08/30 05:21:39;;;;;;;8.57;4.65;;;;;;;28.41;59.25;100887.25;2096615;28;20040;-72
2022/08/30 05:23:01;;;;;;;10.60;5.88;;;;;;;28.52;58.95;100887.50;2098388;28;20047;-72
2022/08/30 05:24:24;;;;;;;;;;;;;;;28.65;58.68;100887.66;2098185;28;20522;-73
2022/08/30 05:25:46;;;;;;;;;;;;;;;28.78;58.78;100886.03;2097576;28;19920;-72
2022/08/30 05:27:10;;;;;;;;;;;;;;;28.92;58.69;100885.22;2103311;28;19924;-72
2022/08/30 05:28:32;;;;;;;12.50;4.45;;;;;;;29.09;58.41;100881.50;2103050;28;19924;-73
2022/08/30 05:29:56;;;;;;;7.72;5.40;;;;;;;29.24;57.85;100886.91;2093084;28;20386;-73
2022/08/30 05:31:21;;;;;;;12.25;5.18;;;;;;;29.43;57.21;100888.56;2094349;28;20056;-73
2022/08/30 05:32:42;;;;;;;11.15;4.40;;;;;;;29.59;57.00;100884.81;2092571;28;20524;-72
2022/08/30 05:34:06;;;;;;;11.80;5.05;;;;;;;29.75;56.79;100882.00;2095266;28;20068;-73
2022/08/30 05:35:28;;;;;;;10.93;5.35;;;;;;;29.91;56.89;100888.25;2086238;28;20083;-73
2022/08/30 05:36:52;;;;;;;10.52;4.18;;;;;;;30.09;56.79;100892.56;2093328;28;20047;-73
2022/08/30 05:38:14;;;;;;;14.32;4.65;;;;;;;30.25;56.18;100892.47;2089626;28;20048;-73
2022/08/30 05:39:35;;;;;;;17.40;5.63;;;;;;;30.41;56.09;100890.50;2095413;28;20040;-73
2022/08/30 05:40:58;;;;;;;12.60;4.40;;;;;;;30.54;55.81;100893.34;2097266;28;20632;-73
2022/08/30 05:42:21;;;;;;;9.05;4.72;;;;;;;30.68;55.57;100893.31;2095725;28;20099;-73
2022/08/30 05:43:43;;;;;;;8.70;4.32;;;;;;;30.76;54.97;100890.97;2090230;28;20044;-73
2022/08/30 05:45:07;;;;;;;9.55;4.30;;;;;;;30.88;54.68;100892.00;2094208;28;20048;-73
2022/08/30 05:46:32;;;;;;;9.10;4.32;;;;;;;31.02;54.37;100891.94;2102270;28;20072;-73
2022/08/30 05:47:53;;;;;;;9.25;4.07;;;;;;;31.13;53.96;100892.13;2096787;28;20072;-73
2022/08/30 05:49:16;;;;;;;12.85;4.53;;;;;;;31.24;53.57;100896.84;2102728;28;20048;-73
2022/08/30 05:50:39;;;;;;;11.18;4.20;;;;;;;31.32;53.38;100891.72;2102248;28;20047;-73
2022/08/30 05:52:02;;;;;;;12.43;4.22;;;;;;;31.35;53.43;100891.53;2086119;28;20142;-73
2022/08/30 05:53:23;;;;;;;10.70;4.07;;;;;;;31.46;53.27;100898.97;2099311;28;20236;-74
2022/08/30 05:54:51;;;;;;;11.20;3.95;;;;;;;31.55;53.18;100885.56;2094111;28;20047;-73
2022/08/30 05:56:16;;;;;;;7.63;3.60;;;;;;;31.71;52.95;100890.84;2092123;28;20134;-73
2022/08/30 05:57:41;;;;;;;7.32;3.38;;;;;;;31.87;52.62;100898.84;2094686;28;20135;-73
2022/08/30 05:59:06;;;;;;;10.05;3.70;;;;;;;32.01;52.31;100898.72;2094630;28;20056;-73
2022/08/30 06:00:29;;;;;;;10.98;4.03;;;;;;;32.14;51.87;100896.03;2094431;28;20078;-74
2022/08/30 06:01:57;;;;;;;16.00;3.97;;;;;;;32.29;51.62;100900.38;2092300;28;20041;-74
2022/08/30 06:03:20;;;;;;;15.80;3.90;;;;;;;32.40;51.44;100893.13;2091434;28;20441;-74
2022/08/30 06:04:42;;;;;;;11.40;4.00;;;;;;;32.54;51.12;100896.72;2093600;28;20142;-74
2022/08/30 06:06:06;;;;;;;8.18;3.80;;;;;;;32.65;50.91;100894.94;2096196;28;20715;-75
2022/08/30 06:07:28;;;;;;;10.40;3.78;;;;;;;32.78;50.47;100894.91;2086120;28;20048;-74
2022/08/30 06:08:53;;;;;;;7.65;3.67;;;;;;;32.90;50.28;100899.47;2086234;28;20773;-74
2022/08/30 06:10:16;;;;;;;11.75;3.75;;;;;;;33.01;50.44;100891.34;2094488;28;20044;-75
2022/08/30 06:11:38;;;;;;;7.70;3.35;;;;;;;33.15;50.33;100899.34;2094382;28;20064;-74
2022/08/30 06:13:02;;;;;;;9.07;3.80;;;;;;;33.29;49.70;100901.06;2094253;28;20048;-74
2022/08/30 06:14:25;;;;;;;9.73;3.40;;;;;;;33.38;49.33;100894.00;2094723;28;20072;-74
2022/08/30 06:15:48;;;;;;;9.77;3.38;;;;;;;33.44;48.58;100893.53;2094123;28;20044;-74
2022/08/30 06:17:10;;;;;;;9.85;3.33;;;;;;;33.48;47.88;100895.91;2098116;28;20508;-74
2022/08/30 06:18:33;;;;;;;9.30;3.30;;;;;;;33.51;47.77;100897.53;2089069;28;20392;-74
2022/08/30 06:19:55;;;;;;;8.30;3.58;;;;;;;33.52;47.69;100891.94;2091152;28;20135;-74
2022/08/30 06:21:18;;;;;;;8.07;4.38;;;;;;;33.57;47.54;100897.06;2098726;28;20121;-74
2022/08/30 06:22:40;;;;;;;12.00;3.53;;;;;;;33.58;47.33;100894.19;2093953;28;20078;-74
2022/08/30 06:24:05;;;;;;;8.75;3.60;;;;;;;33.63;47.16;100897.44;2093826;28;20113;-74